Time;durP1;ratioP1;P1;durP2;ratioP2;P2;SDS_P1;SDS_P2;PMS_P1;PMS_P2;Temp;Humidity;BMP_temperature;BMP_pressure;BME280_temperature;BME280_humidity;BME280_pressure;Samples;Min_cycle;Max_cycle;Signal;HPM_P1;HPM_P2
2022/08/30 00:03:00;;;;;;;4.45;2.03;;;21.80;40.40;;;;;;5018753;28;20426;-59
2022/08/30 00:05:29;;;;;;;5.10;2.20;;;21.80;40.40;;;;;;5019473;28;20064;-59
2022/08/30 00:07:57;;;;;;;3.53;2.30;;;21.80;40.50;;;;;;5020990;28;20049;-60
2022/08/30 00:10:25;;;;;;;4.07;2.15;;;21.80;40.40;;;;;;5012869;28;20053;-60
2022/08/30 00:12:52;;;;;;;5.95;2.47;;;21.80;40.30;;;;;;5017368;28;20068;-60
2022/08/30 00:15:21;;;;;;;4.22;2.03;;;21.70;40.30;;;;;;5017881;28;20494;-60
2022/08/30 00:17:49;;;;;;;6.75;2.28;;;21.70;40.30;;;;;;5020208;28;21068;-59
2022/08/30 00:20:19;;;;;;;3.85;2.17;;;21.70;40.20;;;;;;5015300;28;20387;-60
2022/08/30 00:22:47;;;;;;;4.45;2.22;;;21.60;40.10;;;;;;5016586;28;20516;-60
2022/08/30 00:25:15;;;;;;;4.25;2.30;;;21.60;40.10;;;;;;5015514;28;20049;-58
2022/08/30 00:27:42;;;;;;;6.70;2.55;;;21.60;40.20;;;;;;5015975;28;20049;-56
2022/08/30 00:30:11;;;;;;;4.35;2.38;;;21.60;40.20;;;;;;5015620;28;20100;-59
2022/08/30 00:32:40;;;;;;;4.22;2.28;;;21.50;40.20;;;;;;5020275;28;20618;-60
2022/08/30 00:35:09;;;;;;;3.83;2.10;;;21.50;40.20;;;;;;5015792;28;20520;-59
2022/08/30 00:37:36;;;;;;;4.43;2.03;;;21.50;40.20;;;;;;5019431;28;20502;-59
2022/08/30 00:40:05;;;;;;;4.30;2.40;;;21.50;40.30;;;;;;5015150;28;20045;-60
2022/08/30 00:42:33;;;;;;;3.70;2.40;;;21.50;40.40;;;;;;5015770;28;20057;-59
2022/08/30 00:45:01;;;;;;;4.18;2.38;;;21.40;40.40;;;;;;5022784;28;20068;-60
2022/08/30 00:47:28;;;;;;;5.07;2.40;;;21.40;40.50;;;;;;5022618;28;20053;-59
2022/08/30 00:49:57;;;;;;;4.95;2.60;;;21.40;40.40;;;;;;5018560;28;20529;-58
2022/08/30 00:52:24;;;;;;;4.25;2.15;;;21.40;40.30;;;;;;5024569;28;20417;-59
2022/08/30 00:54:52;;;;;;;4.70;2.35;;;21.30;40.30;;;;;;5022623;28;20062;-60
2022/08/30 00:57:19;;;;;;;7.57;2.22;;;21.30;40.30;;;;;;5025940;28;20061;-58
2022/08/30 00:59:49;;;;;;;5.47;2.15;;;21.30;40.30;;;;;;5017384;28;20053;-59
2022/08/30 01:02:21;;;;;;;6.20;2.42;;;21.20;40.40;;;;;;5018061;28;20061;-60
2022/08/30 01:04:50;;;;;;;5.90;2.42;;;21.20;40.50;;;;;;5025033;28;20064;-59
2022/08/30 01:07:18;;;;;;;3.88;1.88;;;21.20;40.50;;;;;;5021788;28;20060;-59
2022/08/30 01:09:46;;;;;;;4.90;2.03;;;21.10;40.50;;;;;;5018273;28;20064;-60
2022/08/30 01:12:13;;;;;;;5.32;2.17;;;21.10;40.50;;;;;;5019007;28;20549;-60
2022/08/30 01:14:40;;;;;;;3.72;2.13;;;21.10;40.60;;;;;;5023113;28;20053;-60
2022/08/30 01:17:08;;;;;;;3.22;1.85;;;21.10;40.70;;;;;;5021377;28;20050;-59
2022/08/30 01:19:41;;;;;;;3.92;2.20;;;21.10;40.70;;;;;;5020003;28;20402;-59
2022/08/30 01:22:20;;;;;;;6.35;2.45;;;21.00;40.90;;;;;;5018459;28;20497;-58
2022/08/30 01:24:51;;;;;;;4.80;2.15;;;21.00;41.00;;;;;;5022952;28;20057;-57
2022/08/30 01:27:20;;;;;;;5.60;2.20;;;21.00;41.00;;;;;;5023657;28;20062;-59
2022/08/30 01:29:48;;;;;;;3.58;2.13;;;21.00;41.50;;;;;;5014085;28;20053;-59
2022/08/30 01:32:17;;;;;;;4.07;2.13;;;20.90;41.10;;;;;;5015664;28;20050;-60
2022/08/30 01:34:47;;;;;;;3.20;2.25;;;20.90;41.20;;;;;;5021381;28;20049;-59
2022/08/30 01:37:16;;;;;;;3.38;2.10;;;20.90;41.60;;;;;;5024178;28;20486;-59
2022/08/30 01:39:46;;;;;;;4.70;2.60;;;20.90;41.80;;;;;;5008565;28;20068;-58
2022/08/30 01:42:16;;;;;;;3.17;1.92;;;20.90;42.00;;;;;;5016753;28;20050;-59
2022/08/30 01:44:45;;;;;;;4.68;1.75;;;20.90;42.20;;;;;;5019605;28;20080;-60
2022/08/30 01:47:13;;;;;;;4.30;1.85;;;20.90;42.20;;;;;;5021885;28;20336;-59
2022/08/30 01:49:43;;;;;;;5.85;2.47;;;20.80;42.30;;;;;;5019323;28;20045;-56
2022/08/30 01:52:12;;;;;;;3.88;2.17;;;20.80;42.30;;;;;;5021019;28;20053;-58
2022/08/30 01:54:42;;;;;;;3.08;1.80;;;20.80;42.40;;;;;;5020501;28;20064;-59
2022/08/30 01:57:13;;;;;;;5.43;2.30;;;20.80;42.30;;;;;;5023113;28;20056;-60
2022/08/30 01:59:46;;;;;;;2.92;1.95;;;20.80;42.10;;;;;;5018032;28;20058;-59
2022/08/30 02:02:15;;;;;;;2.53;1.80;;;20.80;42.10;;;;;;5017206;28;20057;-59
2022/08/30 02:04:42;;;;;;;5.88;2.25;;;20.80;42.20;;;;;;5022798;28;20060;-59
2022/08/30 02:07:10;;;;;;;4.07;2.17;;;20.70;42.10;;;;;;5024455;28;20068;-60
2022/08/30 02:09:38;;;;;;;6.45;2.40;;;20.70;42.10;;;;;;5020408;28;20057;-56
2022/08/30 02:12:07;;;;;;;5.07;2.35;;;20.70;42.00;;;;;;5015943;28;20426;-60
2022/08/30 02:14:34;;;;;;;4.57;2.33;;;20.60;42.00;;;;;;5014255;28;21648;-60
2022/08/30 02:17:04;;;;;;;3.15;2.03;;;20.60;42.10;;;;;;5023508;28;20070;-59
2022/08/30 02:19:31;;;;;;;2.92;2.00;;;20.50;42.40;;;;;;5017275;28;20117;-59
2022/08/30 02:21:58;;;;;;;4.25;1.95;;;20.50;42.50;;;;;;5012933;28;20487;-59
2022/08/30 02:24:26;;;;;;;3.60;2.35;;;20.50;42.60;;;;;;5014760;28;20060;-59
2022/08/30 02:26:53;;;;;;;4.30;2.42;;;20.40;42.70;;;;;;5020608;28;20049;-60
2022/08/30 02:29:22;;;;;;;3.72;2.28;;;20.40;42.80;;;;;;5012307;28;20054;-57
2022/08/30 02:31:49;;;;;;;5.28;2.35;;;20.40;42.80;;;;;;5014180;28;20076;-57
2022/08/30 02:34:19;;;;;;;4.22;2.33;;;20.40;42.90;;;;;;5022586;28;20494;-54
2022/08/30 02:36:46;;;;;;;4.45;2.20;;;20.30;43.00;;;;;;5023762;28;20436;-50
2022/08/30 02:39:14;;;;;;;6.60;2.40;;;20.30;43.10;;;;;;5020237;28;20064;-50
2022/08/30 02:41:42;;;;;;;4.00;2.40;;;20.30;43.10;;;;;;5018547;28;20049;-51
2022/08/30 02:44:10;;;;;;;5.03;2.50;;;20.20;43.00;;;;;;5021213;28;20061;-50
2022/08/30 02:46:38;;;;;;;4.55;2.67;;;20.20;43.10;;;;;;5021807;28;20057;-52
2022/08/30 02:49:07;;;;;;;4.30;2.10;;;20.20;43.20;;;;;;5015997;28;20419;-51
2022/08/30 02:51:36;;;;;;;4.20;2.08;;;20.10;43.30;;;;;;5017620;28;20053;-59
2022/08/30 02:54:03;;;;;;;5.10;2.22;;;20.10;43.40;;;;;;5020270;28;20057;-58
2022/08/30 02:56:31;;;;;;;5.18;2.30;;;20.10;43.50;;;;;;5016741;28;20062;-59
2022/08/30 02:58:58;;;;;;;4.75;2.33;;;20.10;43.40;;;;;;5018942;28;20057;-59
2022/08/30 03:01:25;;;;;;;3.90;2.25;;;20.10;43.40;;;;;;5020661;28;20053;-59
2022/08/30 03:03:52;;;;;;;3.50;2.13;;;20.00;43.30;;;;;;5021369;28;20053;-58
2022/08/30 03:06:20;;;;;;;4.00;2.10;;;20.00;43.40;;;;;;5022564;28;21394;-60
2022/08/30 03:08:48;;;;;;;3.83;2.10;;;20.00;43.40;;;;;;5022640;28;21084;-60
2022/08/30 03:11:15;;;;;;;8.25;2.10;;;20.00;43.40;;;;;;5020419;28;20054;-60
2022/08/30 03:13:42;;;;;;;4.28;2.17;;;20.00;43.40;;;;;;5020187;28;20505;-58
2022/08/30 03:16:10;;;;;;;9.63;2.15;;;20.00;43.40;;;;;;5017940;28;20056;-55
2022/08/30 03:18:37;;;;;;;3.85;2.05;;;20.00;43.50;;;;;;5020224;28;20060;-60
2022/08/30 03:21:10;;;;;;;4.18;1.83;;;20.00;43.60;;;;;;5022507;28;20053;-59
2022/08/30 03:23:38;;;;;;;3.35;1.85;;;20.00;43.70;;;;;;5017728;28;20053;-58
2022/08/30 03:26:07;;;;;;;3.40;1.52;;;19.90;43.60;;;;;;5019137;28;20045;-59
2022/08/30 03:28:35;;;;;;;5.75;2.08;;;19.90;43.70;;;;;;5018053;28;20068;-58
2022/08/30 03:31:02;;;;;;;4.65;2.42;;;19.90;43.80;;;;;;5017599;28;20053;-58
2022/08/30 03:33:29;;;;;;;3.85;2.28;;;19.90;43.90;;;;;;5019293;28;20056;-59
2022/08/30 03:35:56;;;;;;;3.70;1.80;;;19.90;44.00;;;;;;5018939;28;20062;-59
2022/08/30 03:38:24;;;;;;;3.90;2.03;;;19.90;44.10;;;;;;5022703;28;20498;-59
2022/08/30 03:40:51;;;;;;;3.25;1.90;;;19.90;44.10;;;;;;5020696;28;20425;-59
2022/08/30 03:43:19;;;;;;;6.47;2.30;;;19.90;44.10;;;;;;5017145;28;20053;-60
2022/08/30 03:45:47;;;;;;;3.95;2.20;;;19.90;44.20;;;;;;5019493;28;20679;-59
2022/08/30 03:48:14;;;;;;;4.63;2.13;;;19.90;44.20;;;;;;5016916;28;20058;-59
2022/08/30 03:50:41;;;;;;;6.65;2.92;;;19.90;44.20;;;;;;5018659;28;20072;-53
2022/08/30 03:53:08;;;;;;;4.78;1.88;;;19.90;44.30;;;;;;5021813;28;20053;-57
2022/08/30 03:55:36;;;;;;;2.72;1.83;;;19.90;44.30;;;;;;5017512;28;20053;-59
2022/08/30 03:58:03;;;;;;;3.50;2.05;;;19.90;44.30;;;;;;5020407;28;20057;-58
2022/08/30 04:00:32;;;;;;;3.85;1.88;;;19.90;44.30;;;;;;5012418;28;20510;-57
2022/08/30 04:03:00;;;;;;;4.07;2.33;;;19.80;44.30;;;;;;5017766;28;20057;-59
2022/08/30 04:05:27;;;;;;;5.10;2.20;;;19.80;44.70;;;;;;5018832;28;20522;-59
2022/08/30 04:07:54;;;;;;;6.43;2.75;;;19.80;44.30;;;;;;5016669;28;20520;-58
2022/08/30 04:10:22;;;;;;;3.90;1.60;;;19.80;44.40;;;;;;5011528;28;20516;-59
2022/08/30 04:12:49;;;;;;;5.47;2.25;;;19.80;44.40;;;;;;5021246;28;20061;-60
2022/08/30 04:15:18;;;;;;;5.53;2.05;;;19.80;44.40;;;;;;5012446;28;20052;-59
2022/08/30 04:17:48;;;;;;;3.25;2.05;;;19.70;44.30;;;;;;5002782;28;20506;-59
2022/08/30 04:20:16;;;;;;;4.28;2.08;;;19.70;44.40;;;;;;5013382;28;20050;-59
2022/08/30 04:22:43;;;;;;;4.50;1.98;;;19.70;44.50;;;;;;5018148;28;20057;-60
2022/08/30 04:25:11;;;;;;;4.28;2.22;;;19.70;44.50;;;;;;5019854;28;20058;-59
2022/08/30 04:27:39;;;;;;;5.40;2.53;;;19.70;44.60;;;;;;5021150;28;20060;-57
2022/08/30 04:30:07;;;;;;;6.28;1.92;;;19.70;44.70;;;;;;5017297;28;20056;-58
2022/08/30 04:32:34;;;;;;;8.05;4.90;;;19.60;44.70;;;;;;5015130;28;20062;-60
2022/08/30 04:35:04;;;;;;;6.15;3.38;;;19.60;44.80;;;;;;5010656;28;20061;-59
2022/08/30 04:37:31;;;;;;;4.20;2.25;;;19.60;44.70;;;;;;5018248;28;20068;-59
2022/08/30 04:40:00;;;;;;;6.00;2.50;;;19.60;44.70;;;;;;5015848;28;20057;-60
2022/08/30 04:42:30;;;;;;;4.63;2.55;;;19.60;45.30;;;;;;5021386;28;20050;-57
2022/08/30 04:44:57;;;;;;;4.03;2.40;;;19.50;44.80;;;;;;5017150;28;20049;-57
2022/08/30 04:47:24;;;;;;;3.53;2.55;;;19.50;44.80;;;;;;5015609;28;20057;-60
2022/08/30 04:49:52;;;;;;;4.93;2.65;;;19.50;44.90;;;;;;5014961;28;20064;-59
2022/08/30 04:52:21;;;;;;;3.95;2.25;;;19.50;45.00;;;;;;5021680;28;20490;-56
2022/08/30 04:54:53;;;;;;;8.45;2.10;;;19.40;45.10;;;;;;5016573;28;20053;-59
2022/08/30 04:57:20;;;;;;;4.15;2.33;;;19.40;45.10;;;;;;5019234;28;20413;-59
2022/08/30 04:59:47;;;;;;;6.05;3.10;;;19.40;45.20;;;;;;5015462;28;20072;-59
2022/08/30 05:02:14;;;;;;;6.05;2.80;;;19.40;45.30;;;;;;5016791;28;20058;-59
2022/08/30 05:05:38;;;;;;;3.85;2.05;;;19.40;45.30;;;;;;5019209;28;20497;-59
2022/08/30 05:07:31;;;;;;;4.57;2.20;;;19.40;45.40;;;;;;5017732;28;20053;-59
2022/08/30 05:09:59;;;;;;;4.57;2.17;;;19.40;45.50;;;;;;5005783;28;20057;-59
2022/08/30 05:12:26;;;;;;;5.28;1.95;;;19.30;45.50;;;;;;5015681;28;20413;-60
2022/08/30 05:14:53;;;;;;;3.78;1.90;;;19.30;45.60;;;;;;5015564;28;20084;-59
2022/08/30 05:17:21;;;;;;;4.80;2.10;;;19.30;45.70;;;;;;5019149;28;20058;-59
2022/08/30 05:22:53;;;;;;;5.43;2.55;;;19.30;45.90;;;;;;5012473;28;20413;-59
2022/08/30 05:25:22;;;;;;;4.40;1.98;;;19.30;46.10;;;;;;5011607;28;20061;-60
2022/08/30 05:27:50;;;;;;;5.57;2.47;;;19.30;46.20;;;;;;5019671;28;20402;-58
2022/08/30 05:30:18;;;;;;;6.20;2.08;;;19.30;46.20;;;;;;5014198;28;20049;-54
2022/08/30 05:32:46;;;;;;;5.32;2.20;;;19.30;46.20;;;;;;5024442;28;20050;-59
2022/08/30 05:35:14;;;;;;;6.90;2.10;;;19.30;46.20;;;;;;5020815;28;20045;-58
2022/08/30 05:37:42;;;;;;;2.88;1.85;;;19.30;46.20;;;;;;5022946;28;20068;-58
2022/08/30 05:40:12;;;;;;;3.78;2.10;;;19.20;46.10;;;;;;5021038;28;20062;-58
2022/08/30 05:42:41;;;;;;;7.68;2.50;;;19.30;46.20;;;;;;5021904;28;20049;-58
2022/08/30 05:45:09;;;;;;;7.45;2.45;;;19.20;46.20;;;;;;5021834;28;20068;-59
2022/08/30 05:47:37;;;;;;;9.93;2.72;;;19.20;46.20;;;;;;5022086;28;20069;-58
2022/08/30 05:50:06;;;;;;;12.52;2.60;;;19.20;46.20;;;;;;5008050;28;20053;-58
2022/08/30 05:52:35;;;;;;;10.27;2.45;;;19.20;46.30;;;;;;5021701;28;20052;-60
2022/08/30 05:55:04;;;;;;;7.32;2.40;;;19.20;46.40;;;;;;5018003;28;21455;-59
2022/08/30 05:57:34;;;;;;;6.40;2.40;;;19.30;46.60;;;;;;5016544;28;20050;-58
2022/08/30 06:00:01;;;;;;;4.68;1.90;;;19.30;46.70;;;;;;5013652;28;20053;-58
2022/08/30 06:02:29;;;;;;;5.40;2.25;;;19.30;46.60;;;;;;5016605;28;20037;-58
2022/08/30 06:04:56;;;;;;;5.32;2.08;;;19.30;46.80;;;;;;5014705;28;20053;-57
2022/08/30 06:07:23;;;;;;;4.85;1.98;;;19.30;46.90;;;;;;5008698;28;20057;-58
2022/08/30 06:09:50;;;;;;;3.97;2.22;;;19.30;46.90;;;;;;5018208;28;20065;-58
2022/08/30 06:12:18;;;;;;;3.95;2.15;;;19.30;46.90;;;;;;5017792;28;20049;-56
2022/08/30 06:14:46;;;;;;;4.25;2.42;;;19.40;46.90;;;;;;5022679;28;20060;-59
2022/08/30 06:17:13;;;;;;;4.93;2.00;;;19.40;46.80;;;;;;5011342;28;20053;-59
2022/08/30 06:19:41;;;;;;;4.10;2.08;;;19.40;46.80;;;;;;5013404;28;20703;-59
2022/08/30 06:22:08;;;;;;;5.22;2.05;;;19.40;47.00;;;;;;5008118;28;20045;-59
2022/08/30 06:24:35;;;;;;;5.53;2.33;;;19.40;47.10;;;;;;5016389;28;20050;-57
2022/08/30 06:27:03;;;;;;;4.05;2.20;;;19.40;47.20;;;;;;5020950;28;20062;-59
2022/08/30 06:29:30;;;;;;;4.03;2.42;;;19.40;47.20;;;;;;5020388;28;20049;-58
2022/08/30 06:31:58;;;;;;;6.28;1.98;;;19.40;47.30;;;;;;5020895;28;20049;-58
2022/08/30 06:34:26;;;;;;;11.90;2.70;;;19.40;47.30;;;;;;5023878;28;20053;-58
2022/08/30 06:36:54;;;;;;;6.03;2.72;;;19.40;47.30;;;;;;5021409;28;20061;-58
2022/08/30 06:39:21;;;;;;;4.50;2.60;;;19.50;47.30;;;;;;5023833;28;20053;-58
2022/08/30 06:41:48;;;;;;;10.52;2.25;;;19.50;47.30;;;;;;5018720;28;20485;-58
2022/08/30 06:44:16;;;;;;;3.58;1.90;;;19.50;47.30;;;;;;5022143;28;20064;-59
2022/08/30 06:46:43;;;;;;;5.18;2.53;;;19.50;47.50;;;;;;5020624;28;20062;-59
2022/08/30 06:49:12;;;;;;;4.40;1.88;;;19.60;47.60;;;;;;5021359;28;20053;-58
2022/08/30 06:51:39;;;;;;;5.38;2.22;;;19.60;47.60;;;;;;5019573;28;20406;-58
2022/08/30 06:54:08;;;;;;;6.07;2.40;;;19.60;47.60;;;;;;5024059;28;20060;-58
2022/08/30 06:56:35;;;;;;;7.18;2.28;;;19.70;47.60;;;;;;5019682;28;20068;-56
2022/08/30 06:59:02;;;;;;;8.98;3.03;;;19.70;47.60;;;;;;5019662;28;20058;-57
2022/08/30 07:01:30;;;;;;;6.90;2.70;;;19.80;47.60;;;;;;5021242;28;20056;-56
2022/08/30 07:03:58;;;;;;;6.70;2.40;;;19.80;47.70;;;;;;5021439;28;20053;-58
2022/08/30 07:06:28;;;;;;;6.15;2.95;;;19.90;47.70;;;;;;5020895;28;20053;-59
2022/08/30 07:08:55;;;;;;;4.80;2.38;;;19.90;47.90;;;;;;5018395;28;20045;-58
2022/08/30 07:11:28;;;;;;;7.43;2.63;;;20.00;47.90;;;;;;5017911;28;20057;-59
2022/08/30 07:13:55;;;;;;;5.32;2.35;;;20.10;48.30;;;;;;5021244;28;20061;-58
2022/08/30 07:16:23;;;;;;;3.88;2.08;;;20.10;48.00;;;;;;5019437;28;20053;-58
2022/08/30 07:18:49;;;;;;;6.75;2.42;;;20.20;48.50;;;;;;5020146;28;20057;-59
2022/08/30 07:21:18;;;;;;;4.90;2.60;;;20.30;48.10;;;;;;5018670;28;20053;-59
2022/08/30 07:23:48;;;;;;;10.38;2.38;;;20.40;48.00;;;;;;5021415;28;20053;-58
2022/08/30 07:26:19;;;;;;;3.25;2.00;;;20.50;48.20;;;;;;5019207;28;20061;-59
2022/08/30 07:28:47;;;;;;;7.00;3.10;;;20.50;48.10;;;;;;5018801;28;20057;-57
2022/08/30 07:31:16;;;;;;;9.63;3.00;;;20.60;48.10;;;;;;5018822;28;20053;-58
2022/08/30 07:33:44;;;;;;;4.47;2.45;;;20.70;47.90;;;;;;5022520;28;20053;-58
2022/08/30 07:36:11;;;;;;;9.45;2.55;;;20.70;47.80;;;;;;5019273;28;20053;-58
2022/08/30 07:38:39;;;;;;;5.43;2.20;;;20.90;47.80;;;;;;5022084;28;20513;-59
2022/08/30 07:41:08;;;;;;;4.07;2.15;;;20.90;47.70;;;;;;5018705;28;20057;-59
2022/08/30 07:43:37;;;;;;;4.82;2.22;;;21.00;47.80;;;;;;5020086;28;20423;-59
2022/08/30 07:46:06;;;;;;;5.25;2.45;;;21.10;47.90;;;;;;5022244;28;20057;-58
2022/08/30 07:48:35;;;;;;;3.97;2.33;;;21.10;47.70;;;;;;5019315;28;20064;-58
2022/08/30 07:51:03;;;;;;;5.78;2.30;;;21.20;47.50;;;;;;5013707;28;20053;-58
2022/08/30 07:53:31;;;;;;;6.28;2.00;;;21.20;47.50;;;;;;5021223;28;20052;-59
2022/08/30 07:55:58;;;;;;;4.90;2.17;;;21.30;47.30;;;;;;5022383;28;20057;-57
2022/08/30 07:58:26;;;;;;;4.90;2.33;;;21.40;47.20;;;;;;5021164;28;20057;-59
2022/08/30 08:00:54;;;;;;;5.60;2.50;;;21.40;46.90;;;;;;5019049;28;20057;-59
2022/08/30 08:03:21;;;;;;;4.53;2.33;;;21.50;46.70;;;;;;5021103;28;20045;-59
2022/08/30 08:05:48;;;;;;;4.10;2.25;;;21.60;46.60;;;;;;5022363;28;20053;-58
2022/08/30 08:08:15;;;;;;;3.67;2.40;;;21.60;46.70;;;;;;5019850;28;20061;-59
2022/08/30 08:10:42;;;;;;;5.25;2.10;;;21.80;46.70;;;;;;5013707;28;20049;-59
2022/08/30 08:13:10;;;;;;;5.47;2.60;;;21.80;46.60;;;;;;5020630;28;20053;-59
2022/08/30 08:15:38;;;;;;;3.72;1.77;;;21.90;46.40;;;;;;5019350;28;20057;-58
2022/08/30 08:18:06;;;;;;;10.73;2.72;;;22.00;46.30;;;;;;5013026;28;20062;-58
2022/08/30 08:20:34;;;;;;;7.68;2.85;;;22.10;46.30;;;;;;5002144;28;20056;-59
2022/08/30 08:23:02;;;;;;;4.38;2.55;;;22.20;45.90;;;;;;5013595;28;20049;-59
2022/08/30 08:25:29;;;;;;;4.50;2.03;;;22.20;45.90;;;;;;5020150;28;20417;-59
2022/08/30 08:27:57;;;;;;;6.15;2.40;;;22.30;45.90;;;;;;5018828;28;20054;-57
2022/08/30 08:30:24;;;;;;;4.82;2.47;;;22.40;45.80;;;;;;5008346;28;20505;-59
2022/08/30 08:32:53;;;;;;;5.85;2.38;;;22.50;45.50;;;;;;5011191;28;20045;-58
2022/08/30 08:35:20;;;;;;;5.03;2.42;;;22.60;45.50;;;;;;5010739;28;20060;-59
2022/08/30 08:37:47;;;;;;;6.75;2.50;;;22.60;45.40;;;;;;5017613;28;20057;-58
2022/08/30 08:40:18;;;;;;;6.15;2.20;;;22.70;44.80;;;;;;5013993;28;20054;-59
2022/08/30 08:42:57;;;;;;;9.48;2.55;;;22.80;45.30;;;;;;5017714;28;20057;-59
2022/08/30 08:45:36;;;;;;;5.40;2.92;;;22.90;44.90;;;;;;5013065;28;20502;-59
2022/08/30 08:48:10;;;;;;;5.55;2.22;;;22.90;44.80;;;;;;5014795;28;20412;-59
2022/08/30 08:53:33;;;;;;;9.45;3.13;;;23.00;44.60;;;;;;5013089;28;20064;-58
2022/08/30 08:53:34;;;;;;;6.75;2.50;;;23.10;44.20;;;;;;5011790;28;20072;-59
2022/08/30 08:56:05;;;;;;;5.88;2.47;;;23.10;43.80;;;;;;5007555;28;20049;-58
2022/08/30 08:58:43;;;;;;;6.85;2.90;;;23.20;43.90;;;;;;5014887;28;20061;-59
2022/08/30 09:01:12;;;;;;;6.93;2.80;;;23.30;44.20;;;;;;5007644;28;20052;-59
2022/08/30 09:03:41;;;;;;;4.65;2.30;;;23.30;43.80;;;;;;5017976;28;20068;-59
2022/08/30 09:06:24;;;;;;;5.32;2.55;;;23.40;43.60;;;;;;5021158;28;20053;-58
2022/08/30 09:08:51;;;;;;;4.95;2.42;;;23.50;43.50;;;;;;5022416;28;20421;-58
2022/08/30 09:11:24;;;;;;;9.00;2.88;;;23.60;43.50;;;;;;5019959;28;20490;-58
2022/08/30 09:13:53;;;;;;;5.22;2.53;;;23.70;43.40;;;;;;5017995;28;20508;-58
2022/08/30 09:16:50;;;;;;;3.58;2.20;;;23.70;43.60;;;;;;5016303;28;20049;-59
2022/08/30 09:19:36;;;;;;;4.38;2.28;;;23.80;42.90;;;;;;5017604;28;20058;-59
2022/08/30 09:22:13;;;;;;;6.28;2.70;;;23.90;43.20;;;;;;5014951;28;20064;-58
2022/08/30 09:24:43;;;;;;;4.72;2.47;;;24.00;42.60;;;;;;5019489;28;20490;-58
2022/08/30 09:27:19;;;;;;;4.10;2.72;;;24.10;42.50;;;;;;5024374;28;20512;-58
2022/08/30 09:29:55;;;;;;;4.97;2.60;;;24.20;42.50;;;;;;5016855;28;20774;-58
2022/08/30 09:32:28;;;;;;;6.53;2.45;;;24.20;42.30;;;;;;5023351;28;20057;-58
2022/08/30 09:34:57;;;;;;;4.80;2.40;;;24.30;42.50;;;;;;5019493;28;20062;-58
2022/08/30 09:37:28;;;;;;;6.05;2.40;;;24.40;41.90;;;;;;5021347;28;20061;-57
2022/08/30 09:39:56;;;;;;;9.32;2.90;;;24.40;41.80;;;;;;5018963;28;20058;-57
2022/08/30 09:42:25;;;;;;;4.68;2.30;;;24.50;41.60;;;;;;5025974;28;20060;-56
2022/08/30 09:45:09;;;;;;;8.93;2.70;;;24.50;41.60;;;;;;5019419;28;20490;-58
2022/08/30 09:47:39;;;;;;;3.67;2.35;;;24.50;41.40;;;;;;5015874;28;20489;-58
2022/08/30 09:50:10;;;;;;;4.68;2.30;;;24.60;41.80;;;;;;5012058;28;20050;-57
2022/08/30 09:52:56;;;;;;;5.18;2.03;;;24.70;41.80;;;;;;5023434;28;20504;-58
2022/08/30 09:55:54;;;;;;;9.52;2.58;;;24.80;41.40;;;;;;5017117;28;20053;-58
2022/08/30 09:58:37;;;;;;;6.43;3.08;;;24.90;40.50;;;;;;5019881;28;20054;-58
2022/08/30 10:01:12;;;;;;;5.20;2.35;;;25.00;40.80;;;;;;5013506;28;20061;-59
2022/08/30 10:03:47;;;;;;;13.27;3.05;;;25.00;40.20;;;;;;5016203;28;20512;-57
2022/08/30 10:06:25;;;;;;;5.70;2.80;;;25.10;39.70;;;;;;5024650;28;20057;-58
2022/08/30 10:09:01;;;;;;;5.38;2.63;;;25.20;40.20;;;;;;5023854;28;20057;-58
2022/08/30 10:11:35;;;;;;;6.68;2.47;;;25.30;40.00;;;;;;5015058;28;20058;-58
2022/08/30 10:14:29;;;;;;;4.68;2.83;;;25.30;39.70;;;;;;5018014;28;20508;-58
2022/08/30 10:17:04;;;;;;;6.38;2.70;;;25.40;38.80;;;;;;5020863;28;20436;-58
2022/08/30 10:19:46;;;;;;;6.07;2.53;;;25.40;38.70;;;;;;5019287;28;20057;-58
2022/08/30 10:22:18;;;;;;;7.30;2.20;;;25.50;37.80;;;;;;5021343;28;20057;-57
2022/08/30 10:24:50;;;;;;;3.63;2.00;;;25.50;38.10;;;;;;5017978;28;20056;-57
2022/08/30 10:27:23;;;;;;;6.03;2.50;;;25.60;37.80;;;;;;5013514;28;20524;-57
2022/08/30 10:29:58;;;;;;;6.70;2.10;;;25.70;37.70;;;;;;5010157;28;20064;-55
2022/08/30 10:32:30;;;;;;;4.00;2.42;;;25.70;36.90;;;;;;5018397;28;20049;-58
2022/08/30 10:35:04;;;;;;;5.28;2.60;;;25.80;35.60;;;;;;5017316;28;20056;-50
2022/08/30 10:37:38;;;;;;;4.55;2.03;;;25.80;36.10;;;;;;5017479;28;20469;-57
2022/08/30 10:42:53;;;;;;;3.92;2.15;;;26.10;37.30;;;;;;5014793;28;19925;-57
2022/08/30 10:45:22;;;;;;;6.07;2.63;;;26.20;36.30;;;;;;5017313;28;20045;-57
2022/08/30 10:47:57;;;;;;;7.75;2.83;;;26.30;34.60;;;;;;5020936;28;20049;-58
2022/08/30 10:50:30;;;;;;;3.90;2.35;;;26.40;35.10;;;;;;5016129;28;20509;-54
2022/08/30 10:53:03;;;;;;;12.70;3.10;;;26.50;34.60;;;;;;5019424;28;20394;-57
2022/08/30 10:55:35;;;;;;;5.60;2.50;;;26.60;34.90;;;;;;5017793;28;20056;-57
2022/08/30 10:58:05;;;;;;;3.70;2.22;;;26.70;35.10;;;;;;5026110;28;20057;-57
2022/08/30 11:00:41;;;;;;;4.10;2.45;;;26.80;35.10;;;;;;5015758;28;20057;-56
2022/08/30 11:03:31;;;;;;;6.20;2.92;;;26.90;34.80;;;;;;5021999;28;20419;-58
2022/08/30 11:06:18;;;;;;;5.47;2.75;;;27.00;34.80;;;;;;5023432;28;20049;-58
2022/08/30 11:09:02;;;;;;;3.42;2.30;;;27.00;34.80;;;;;;5016295;28;20073;-56
2022/08/30 11:11:37;;;;;;;;;;;27.10;34.70;;;;;;5016345;28;20052;-56
2022/08/30 11:14:06;;;;;;;4.40;2.25;;;27.10;35.30;;;;;;5018018;28;20138;-57
2022/08/30 11:16:37;;;;;;;4.03;2.42;;;27.20;34.70;;;;;;5012751;28;20386;-57
2022/08/30 11:19:14;;;;;;;4.32;2.22;;;27.10;34.70;;;;;;5019480;28;20068;-57
2022/08/30 11:21:44;;;;;;;3.25;2.10;;;27.10;34.20;;;;;;5016409;28;20045;-57
2022/08/30 11:24:15;;;;;;;5.82;2.40;;;27.10;34.20;;;;;;5020364;28;20053;-57
2022/08/30 11:27:00;;;;;;;6.30;2.47;;;27.10;33.50;;;;;;5021992;28;20524;-57
2022/08/30 11:29:44;;;;;;;7.35;2.80;;;27.10;33.10;;;;;;5013533;28;20049;-57
2022/08/30 11:32:56;;;;;;;3.83;2.55;;;27.20;33.00;;;;;;5016357;28;20524;-57
2022/08/30 11:35:38;;;;;;;6.55;2.47;;;27.20;33.70;;;;;;5021365;28;20057;-57
2022/08/30 11:38:39;;;;;;;4.53;2.17;;;27.30;33.40;;;;;;5019650;28;20527;-56
2022/08/30 11:41:10;;;;;;;5.07;2.55;;;27.40;34.00;;;;;;5016116;28;20057;-58
2022/08/30 11:43:54;;;;;;;5.95;2.58;;;27.50;34.20;;;;;;5019349;28;20056;-56
2022/08/30 11:46:35;;;;;;;;;;;27.50;32.90;;;;;;5007867;28;20064;-56
2022/08/30 11:49:29;;;;;;;3.60;2.40;;;27.60;33.80;;;;;;5012690;28;19928;-56
2022/08/30 11:52:19;;;;;;;4.15;2.47;;;27.60;32.50;;;;;;5015236;28;20068;-57
2022/08/30 11:55:01;;;;;;;8.95;2.22;;;27.70;33.20;;;;;;5000621;28;20058;-56
2022/08/30 11:57:37;;;;;;;5.40;2.67;;;27.70;33.40;;;;;;4998154;28;20061;-57
2022/08/30 12:00:09;;;;;;;11.00;3.40;;;27.80;33.70;;;;;;5010316;28;20063;-55
2022/08/30 12:02:50;;;;;;;6.47;2.47;;;27.80;33.60;;;;;;4986776;28;20061;-57
2022/08/30 12:06:00;;;;;;;5.93;2.47;;;27.80;33.50;;;;;;4996423;28;20523;-57
2022/08/30 12:08:43;;;;;;;3.60;2.42;;;27.80;33.50;;;;;;4996343;28;20049;-55
2022/08/30 12:11:44;;;;;;;3.77;2.30;;;27.90;33.60;;;;;;5004854;28;20686;-58
2022/08/30 12:14:40;;;;;;;4.13;2.10;;;27.80;34.60;;;;;;5017581;28;20503;-59
2022/08/30 12:20:01;;;;;;;3.58;2.22;;;27.90;33.30;;;;;;5008315;28;20053;-56
2022/08/30 12:22:30;;;;;;;4.47;2.80;;;27.80;33.40;;;;;;5002296;28;20060;-54
2022/08/30 12:24:57;;;;;;;7.45;3.17;;;27.80;33.80;;;;;;5014637;28;20050;-56
2022/08/30 12:27:27;;;;;;;6.22;2.85;;;27.80;32.90;;;;;;5014630;28;20441;-56
2022/08/30 12:30:00;;;;;;;5.72;2.67;;;27.90;32.50;;;;;;5011989;28;20061;-58
2022/08/30 12:32:29;;;;;;;4.60;2.75;;;27.90;32.80;;;;;;5018118;28;20064;-56
2022/08/30 12:34:57;;;;;;;5.30;3.22;;;27.90;32.90;;;;;;5023528;28;20065;-57
2022/08/30 12:37:26;;;;;;;5.00;2.40;;;28.00;32.00;;;;;;5023514;28;20057;-57
2022/08/30 12:40:05;;;;;;;4.10;2.42;;;28.00;32.00;;;;;;5023734;28;20060;-57
2022/08/30 12:42:35;;;;;;;4.90;2.35;;;28.00;32.00;;;;;;5020298;28;20046;-58
2022/08/30 12:45:06;;;;;;;6.45;3.00;;;28.10;32.30;;;;;;5019860;28;20057;-58
2022/08/30 12:47:41;;;;;;;7.10;3.15;;;28.10;31.90;;;;;;5026233;28;20494;-57
2022/08/30 12:50:10;;;;;;;3.78;2.45;;;28.20;31.90;;;;;;5018552;28;20053;-56
2022/08/30 12:52:40;;;;;;;4.60;2.38;;;28.30;32.30;;;;;;5021365;28;20057;-57
2022/08/30 12:55:15;;;;;;;7.50;2.95;;;28.30;32.50;;;;;;5022368;28;20501;-57
2022/08/30 12:57:54;;;;;;;3.72;2.20;;;28.40;32.00;;;;;;5014395;28;20060;-57
2022/08/30 13:00:26;;;;;;;12.45;2.90;;;28.40;32.10;;;;;;5019844;28;20062;-58
2022/08/30 13:02:55;;;;;;;3.63;2.33;;;28.50;31.20;;;;;;5022680;28;20061;-57
2022/08/30 13:05:42;;;;;;;4.22;2.50;;;28.50;32.10;;;;;;5000720;28;20532;-56
2022/08/30 13:08:15;;;;;;;7.97;2.67;;;28.50;32.20;;;;;;4986982;28;20072;-53
2022/08/30 13:10:50;;;;;;;6.97;2.85;;;28.50;32.20;;;;;;4985989;28;20057;-57
2022/08/30 13:13:29;;;;;;;5.18;2.60;;;28.60;32.40;;;;;;4996608;28;20058;-55
2022/08/30 13:16:06;;;;;;;5.88;2.80;;;28.60;32.00;;;;;;5016807;28;20064;-57
2022/08/30 13:18:34;;;;;;;5.00;3.00;;;28.60;31.10;;;;;;5025620;28;20441;-57